createdAt,value
2023-04-22T00:02:14.700Z,96.88
2023-04-22T00:04:41.804Z,95.22
2023-04-22T00:07:08.799Z,97.07
2023-04-22T00:09:36.184Z,100.43
2023-04-22T00:12:03.180Z,98.28
2023-04-22T00:14:29.909Z,105.45
2023-04-22T00:16:57.196Z,95.65
2023-04-22T00:19:24.304Z,96.38
2023-04-22T00:21:50.943Z,96.55
2023-04-22T00:24:17.668Z,94.82
2023-04-22T00:26:44.310Z,96.50
2023-04-22T00:29:11.024Z,97.10
2023-04-22T00:31:38.770Z,99.18
2023-04-22T00:34:05.486Z,96.85
2023-04-22T00:36:32.161Z,96.20
2023-04-22T00:38:58.803Z,95.30
2023-04-22T00:41:26.182Z,96.10
2023-04-22T00:43:53.625Z,94.15
2023-04-22T00:46:20.845Z,96.63
2023-04-22T00:48:47.536Z,94.35
2023-04-22T00:51:14.131Z,97.70
2023-04-22T00:53:40.749Z,96.63
2023-04-22T00:56:07.777Z,96.50
2023-04-22T00:58:34.690Z,94.18
2023-04-22T01:01:01.408Z,93.57
2023-04-22T01:03:30.472Z,96.35
2023-04-22T01:05:58.222Z,94.70
2023-04-22T01:08:29.796Z,100.80
2023-04-22T01:10:57.429Z,94.78
2023-04-22T01:13:24.401Z,96.22
2023-04-22T01:15:53.051Z,93.93
2023-04-22T01:18:20.052Z,96.03
2023-04-22T01:20:46.689Z,95.03
2023-04-22T01:23:22.799Z,96.22
2023-04-22T01:25:49.797Z,94.28
2023-04-22T01:28:17.235Z,94.68
2023-04-22T01:30:44.776Z,94.75
2023-04-22T01:33:12.284Z,94.03
2023-04-22T01:35:39.929Z,94.53
2023-04-22T01:38:08.949Z,98.60
2023-04-22T01:40:35.783Z,102.40
2023-04-22T01:43:03.172Z,100.57
2023-04-22T01:45:30.092Z,94.65
2023-04-22T01:47:56.758Z,94.35
2023-04-22T01:50:23.990Z,95.90
2023-04-22T01:52:51.085Z,96.97
2023-04-22T01:55:17.735Z,96.00
2023-04-22T01:57:44.531Z,93.57
2023-04-22T02:00:11.749Z,95.40
2023-04-22T02:02:38.766Z,94.13
2023-04-22T02:05:07.544Z,93.72
2023-04-22T02:07:34.449Z,97.90
2023-04-22T02:10:02.084Z,100.65
2023-04-22T02:12:28.800Z,94.78
2023-04-22T02:14:55.415Z,95.53
2023-04-22T02:17:22.296Z,95.07
2023-04-22T02:19:48.998Z,94.72
2023-04-22T02:22:16.938Z,94.85
2023-04-22T02:24:43.601Z,93.82
2023-04-22T02:27:10.209Z,94.68
2023-04-22T02:29:37.070Z,94.65
2023-04-22T02:32:03.864Z,95.63
2023-04-22T02:34:30.521Z,94.28
2023-04-22T02:36:57.130Z,94.65
2023-04-22T02:39:25.250Z,95.85
2023-04-22T02:41:51.879Z,94.53
2023-04-22T02:44:18.552Z,97.38
2023-04-22T02:46:45.255Z,94.03
2023-04-22T02:49:11.920Z,97.15
2023-04-22T02:51:39.384Z,96.53
2023-04-22T02:54:06.109Z,93.38
2023-04-22T02:56:32.733Z,94.07
2023-04-22T02:58:59.428Z,96.72
2023-04-22T03:01:26.055Z,94.38
2023-04-22T03:03:53.076Z,94.53
2023-04-22T03:06:20.007Z,93.13
2023-04-22T03:08:46.637Z,93.25
2023-04-22T03:11:13.831Z,94.93
2023-04-22T03:13:40.655Z,95.90
2023-04-22T03:16:07.513Z,95.75
2023-04-22T03:18:34.201Z,94.53
2023-04-22T03:21:00.997Z,100.45
2023-04-22T03:23:27.625Z,94.10
2023-04-22T03:25:54.222Z,99.18
2023-04-22T03:28:20.887Z,96.03
2023-04-22T03:30:48.462Z,94.25
2023-04-22T03:33:15.202Z,94.38
2023-04-22T03:35:41.916Z,95.43
2023-04-22T03:38:08.557Z,97.25
2023-04-22T03:40:35.226Z,96.45
2023-04-22T03:43:03.536Z,93.70
2023-04-22T03:45:30.284Z,95.32
2023-04-22T03:47:57.013Z,95.57
2023-04-22T03:50:23.773Z,97.28
2023-04-22T03:52:50.413Z,101.88
2023-04-22T03:55:17.112Z,95.13
2023-04-22T03:57:43.751Z,101.63
2023-04-22T04:00:10.871Z,96.00
2023-04-22T04:02:37.741Z,96.07
2023-04-22T04:05:05.162Z,95.43
2023-04-22T04:07:32.033Z,95.78
2023-04-22T04:09:58.686Z,95.80
2023-04-22T04:12:25.285Z,95.30
2023-04-22T04:14:51.889Z,94.65
2023-04-22T04:17:18.587Z,94.72
2023-04-22T04:19:45.337Z,96.50
2023-04-22T04:22:11.973Z,103.88
2023-04-22T04:24:42.204Z,95.00
2023-04-22T04:27:09.066Z,94.03
2023-04-22T04:29:36.870Z,103.55
2023-04-22T04:32:04.890Z,96.32
2023-04-22T04:34:34.522Z,94.47
2023-04-22T04:37:01.217Z,96.47
2023-04-22T04:39:29.184Z,94.30
2023-04-22T04:41:58.585Z,96.05
2023-04-22T04:44:28.387Z,96.25
2023-04-22T04:46:55.144Z,97.70
2023-04-22T04:49:21.912Z,98.85
2023-04-22T04:51:49.111Z,97.32
2023-04-22T04:54:16.079Z,96.20
2023-04-22T04:56:43.094Z,95.95
2023-04-22T04:59:09.808Z,94.50
2023-04-22T05:01:36.493Z,95.82
2023-04-22T05:04:03.376Z,95.25
2023-04-22T05:06:31.372Z,96.50
2023-04-22T05:08:58.310Z,98.22
2023-04-22T05:11:24.969Z,95.15
2023-04-22T05:13:51.642Z,95.97
2023-04-22T05:16:18.386Z,96.05
2023-04-22T05:18:45.053Z,99.68
2023-04-22T05:21:11.652Z,94.15
2023-04-22T05:23:38.305Z,93.88
2023-04-22T05:26:05.112Z,95.97
2023-04-22T05:28:31.723Z,97.35
2023-04-22T05:30:58.375Z,96.50
2023-04-22T05:33:25.022Z,97.47
2023-04-22T05:35:52.373Z,98.53
2023-04-22T05:38:19.019Z,99.32
2023-04-22T05:40:45.746Z,94.63
2023-04-22T05:43:12.386Z,97.80
2023-04-22T05:45:39.097Z,95.65
2023-04-22T05:48:05.929Z,95.75
2023-04-22T05:50:32.674Z,94.72
2023-04-22T05:52:59.305Z,95.85
2023-04-22T05:55:25.953Z,96.63
2023-04-22T05:57:52.593Z,94.13
2023-04-22T06:00:19.408Z,100.80
2023-04-22T06:02:46.295Z,94.88
2023-04-22T06:05:13.259Z,96.13
2023-04-22T06:07:40.540Z,98.22
2023-04-22T06:10:08.100Z,97.40
2023-04-22T06:12:35.367Z,96.13
2023-04-22T06:15:02.134Z,93.47
2023-04-22T06:17:28.916Z,94.35
2023-04-22T06:19:55.592Z,94.78
2023-04-22T06:22:22.362Z,95.85
2023-04-22T06:24:48.993Z,96.38
2023-04-22T06:27:15.584Z,96.53
2023-04-22T06:29:42.356Z,98.60
2023-04-22T06:32:08.977Z,97.28
2023-04-22T06:34:35.627Z,94.88
2023-04-22T06:37:02.232Z,97.55
2023-04-22T06:39:28.847Z,96.45
2023-04-22T06:41:55.693Z,95.63
2023-04-22T06:44:22.418Z,98.68
2023-04-22T06:46:49.123Z,95.28
2023-04-22T06:49:15.810Z,92.22
2023-04-22T06:51:42.460Z,91.90
2023-04-22T06:54:09.325Z,97.50
2023-04-22T06:56:36.158Z,91.50
2023-04-22T06:59:02.996Z,95.45
2023-04-22T07:01:29.753Z,90.30
2023-04-22T07:03:56.697Z,89.25
2023-04-22T07:06:23.501Z,90.57
2023-04-22T07:08:50.186Z,90.77
2023-04-22T07:11:16.840Z,88.80
2023-04-22T07:13:43.496Z,88.53
2023-04-22T07:16:10.268Z,87.57
2023-04-22T07:18:37.009Z,86.57
2023-04-22T07:21:03.793Z,85.40
2023-04-22T07:23:30.537Z,86.60
2023-04-22T07:25:57.241Z,85.47
2023-04-22T07:28:23.919Z,88.00
2023-04-22T07:30:50.597Z,84.77
2023-04-22T07:33:17.236Z,88.50
2023-04-22T07:35:43.895Z,85.47
2023-04-22T07:38:12.137Z,86.70
2023-04-22T07:40:40.038Z,87.40
2023-04-22T07:43:06.669Z,88.37
2023-04-22T07:45:33.540Z,91.60
2023-04-22T07:48:00.285Z,87.03
2023-04-22T07:50:27.077Z,90.07
2023-04-22T07:52:53.780Z,92.50
2023-04-22T07:55:20.512Z,89.67
2023-04-22T07:57:47.208Z,88.37
2023-04-22T08:00:14.826Z,90.30
2023-04-22T08:02:42.026Z,86.93
2023-04-22T08:05:08.968Z,88.67
2023-04-22T08:07:35.654Z,91.10
2023-04-22T08:10:02.345Z,93.50
2023-04-22T08:12:28.999Z,91.33
2023-04-22T08:14:55.676Z,89.60
2023-04-22T08:17:22.883Z,88.50
2023-04-22T08:19:49.942Z,89.60
2023-04-22T08:22:18.462Z,87.97
2023-04-22T08:24:45.314Z,90.13
2023-04-22T08:27:12.153Z,88.80
2023-04-22T08:29:39.248Z,87.90
2023-04-22T08:32:06.178Z,89.10
2023-04-22T08:34:32.963Z,101.73
2023-04-22T08:36:59.641Z,88.17
2023-04-22T08:39:26.311Z,87.00
2023-04-22T08:41:53.930Z,86.20
2023-04-22T08:44:21.887Z,91.77
2023-04-22T08:46:49.346Z,88.37
2023-04-22T08:49:16.300Z,87.60
2023-04-22T08:51:44.087Z,92.67
2023-04-22T08:54:12.868Z,86.27
2023-04-22T08:56:44.952Z,89.00
2023-04-22T08:59:13.251Z,87.77
2023-04-22T09:01:43.248Z,88.30
2023-04-22T09:04:11.360Z,88.17
2023-04-22T09:06:38.951Z,88.20
2023-04-22T09:09:05.926Z,98.28
2023-04-22T09:11:33.434Z,90.50
2023-04-22T09:14:00.204Z,89.93
2023-04-22T09:16:26.867Z,87.83
2023-04-22T09:18:53.550Z,90.30
2023-04-22T09:21:20.325Z,89.28
2023-04-22T09:23:53.362Z,90.32
2023-04-22T09:26:21.867Z,90.32
2023-04-22T09:28:58.599Z,92.75
2023-04-22T09:31:27.161Z,88.87
2023-04-22T09:33:58.992Z,89.80
2023-04-22T09:36:30.070Z,90.35
2023-04-22T09:38:59.532Z,90.40
2023-04-22T09:41:34.751Z,87.35
2023-04-22T09:44:02.984Z,88.95
2023-04-22T09:46:31.217Z,88.18
2023-04-22T09:49:01.489Z,86.72
2023-04-22T09:51:30.654Z,86.47
2023-04-22T09:54:01.902Z,86.67
2023-04-22T09:56:48.589Z,87.50
2023-04-22T09:59:28.129Z,86.90
2023-04-22T10:02:06.734Z,85.63
2023-04-22T10:04:34.089Z,85.77
2023-04-22T10:07:02.667Z,87.47
2023-04-22T10:09:29.462Z,86.73
2023-04-22T10:12:00.245Z,86.55
2023-04-22T10:14:27.251Z,84.87
2023-04-22T10:17:00.714Z,85.00
2023-04-22T10:19:28.115Z,85.50
2023-04-22T10:21:57.917Z,86.60
2023-04-22T10:24:27.499Z,85.00
2023-04-22T10:26:58.631Z,83.70
2023-04-22T10:29:27.841Z,84.27
2023-04-22T10:32:11.611Z,83.73
2023-04-22T10:34:41.161Z,83.60
2023-04-22T10:37:12.405Z,88.60
2023-04-22T10:39:41.858Z,83.70
2023-04-22T10:42:15.313Z,82.40
2023-04-22T10:44:45.081Z,83.80
2023-04-22T10:47:11.911Z,84.33
2023-04-22T10:49:38.911Z,82.63
2023-04-22T10:52:08.686Z,82.37
2023-04-22T10:54:38.352Z,83.13
2023-04-22T10:57:07.976Z,88.90
2023-04-22T10:59:50.486Z,83.27
2023-04-22T11:02:18.081Z,83.17
2023-04-22T11:04:45.263Z,82.47
2023-04-22T11:07:22.738Z,82.27
2023-04-22T11:10:07.710Z,81.60
2023-04-22T11:12:41.788Z,85.47
2023-04-22T11:15:22.309Z,81.57
2023-04-22T11:17:53.915Z,81.97
2023-04-22T11:20:21.139Z,82.67
2023-04-22T11:22:57.702Z,82.20
2023-04-22T11:25:25.914Z,81.53
2023-04-22T11:27:54.379Z,84.87
2023-04-22T11:30:22.655Z,82.80
2023-04-22T11:32:54.663Z,83.00
2023-04-22T11:35:27.722Z,83.60
2023-04-22T11:38:02.694Z,84.10
2023-04-22T11:40:37.138Z,84.30
2023-04-22T11:43:06.598Z,82.00
2023-04-22T11:45:35.243Z,84.57
2023-04-22T11:48:03.591Z,83.07
2023-04-22T11:50:32.314Z,82.70
2023-04-22T11:53:19.723Z,82.70
2023-04-22T11:55:50.867Z,83.33
2023-04-22T11:58:28.099Z,83.30
2023-04-22T12:00:57.544Z,83.00
2023-04-22T12:03:28.985Z,82.00
2023-04-22T12:06:05.433Z,84.60
2023-04-22T12:08:42.136Z,82.97
2023-04-22T12:11:10.649Z,83.27
2023-04-22T12:13:37.244Z,86.50
2023-04-22T12:16:06.187Z,82.27
2023-04-22T12:18:38.604Z,81.77
2023-04-22T12:21:12.892Z,83.30
2023-04-22T12:23:43.628Z,82.60
2023-04-22T12:26:10.898Z,83.57
2023-04-22T12:28:38.619Z,91.87
2023-04-22T12:31:06.006Z,86.87
2023-04-22T12:33:33.210Z,85.10
2023-04-22T12:35:59.988Z,85.00
2023-04-22T12:38:26.855Z,83.50
2023-04-22T12:40:54.500Z,84.97
2023-04-22T12:43:21.343Z,84.90
2023-04-22T12:45:48.073Z,83.83
2023-04-22T12:48:14.822Z,82.47
2023-04-22T12:50:41.599Z,84.83
2023-04-22T12:53:08.239Z,84.70
2023-04-22T12:55:35.856Z,81.70
2023-04-22T12:58:04.139Z,83.03
2023-04-22T13:00:30.975Z,87.20
2023-04-22T13:02:57.941Z,95.93
2023-04-22T13:05:25.361Z,121.00
2023-04-22T13:08:05.895Z,84.57
2023-04-22T13:10:34.875Z,83.87
2023-04-22T13:13:16.967Z,84.35
2023-04-22T13:15:45.352Z,91.77
2023-04-22T13:18:12.089Z,90.85
2023-04-22T13:20:39.827Z,119.70
2023-04-22T13:23:06.663Z,124.68
2023-04-22T13:25:33.319Z,105.90
2023-04-22T13:28:00.043Z,103.30
2023-04-22T13:30:26.725Z,113.72
2023-04-22T13:32:53.384Z,113.20
2023-04-22T13:35:20.712Z,125.53
2023-04-22T13:37:47.352Z,144.60
2023-04-22T13:40:14.287Z,93.47
2023-04-22T13:42:41.162Z,105.20
2023-04-22T13:45:08.419Z,97.07
2023-04-22T13:47:35.396Z,94.10
2023-04-22T13:50:02.211Z,93.82
2023-04-22T13:52:29.333Z,88.60
2023-04-22T13:54:56.000Z,91.90
2023-04-22T13:57:23.382Z,86.97
2023-04-22T13:59:50.683Z,91.03
2023-04-22T14:02:17.812Z,87.82
2023-04-22T14:04:44.574Z,87.28
2023-04-22T14:07:11.856Z,87.40
2023-04-22T14:09:38.837Z,95.38
2023-04-22T14:12:07.607Z,91.40
2023-04-22T14:14:34.295Z,93.80
2023-04-22T14:17:00.980Z,93.43
2023-04-22T14:19:28.954Z,95.20
2023-04-22T14:21:56.021Z,95.65
2023-04-22T14:24:24.180Z,94.72
2023-04-22T14:26:52.263Z,108.72
2023-04-22T14:29:19.221Z,115.20
2023-04-22T14:31:45.911Z,91.72
2023-04-22T14:34:12.532Z,90.07
2023-04-22T14:36:39.177Z,92.53
2023-04-22T14:39:05.843Z,87.78
2023-04-22T14:41:32.484Z,90.50
2023-04-22T14:43:59.146Z,89.53
2023-04-22T14:46:25.836Z,89.45
2023-04-22T14:48:52.529Z,88.57
2023-04-22T14:51:19.182Z,86.75
2023-04-22T14:53:45.862Z,86.60
2023-04-22T14:56:12.617Z,87.07
2023-04-22T14:58:39.287Z,87.05
2023-04-22T15:01:07.543Z,90.65
2023-04-22T15:03:35.822Z,90.75
2023-04-22T15:06:03.075Z,85.85
2023-04-22T15:08:29.751Z,87.28
2023-04-22T15:10:56.543Z,86.43
2023-04-22T15:13:23.226Z,87.13
2023-04-22T15:15:49.919Z,87.93
2023-04-22T15:18:16.633Z,89.35
2023-04-22T15:20:43.239Z,86.72
2023-04-22T15:23:09.956Z,91.93
2023-04-22T15:25:36.759Z,87.82
2023-04-22T15:28:04.103Z,87.43
2023-04-22T15:30:30.750Z,87.60
2023-04-22T15:32:57.541Z,89.30
2023-04-22T15:35:24.461Z,87.75
2023-04-22T15:37:54.240Z,88.18
2023-04-22T15:40:20.944Z,88.97
2023-04-22T15:42:47.569Z,91.68
2023-04-22T15:45:14.404Z,88.13
2023-04-22T15:47:41.727Z,95.47
2023-04-22T15:50:10.001Z,91.60
2023-04-22T15:52:37.930Z,98.00
2023-04-22T15:55:06.015Z,89.47
2023-04-22T15:57:34.695Z,89.90
2023-04-22T16:00:12.531Z,88.50
2023-04-22T16:02:40.491Z,88.80
2023-04-22T16:05:07.547Z,92.03
2023-04-22T16:07:34.373Z,96.50
2023-04-22T16:10:01.237Z,95.30
2023-04-22T16:12:27.954Z,111.00
2023-04-22T16:14:54.631Z,99.30
2023-04-22T16:17:21.446Z,106.43
2023-04-22T16:19:48.328Z,102.20
2023-04-22T16:22:14.930Z,106.57
2023-04-22T16:24:43.999Z,92.18
2023-04-22T16:27:16.072Z,105.05
2023-04-22T16:29:43.166Z,91.68
2023-04-22T16:32:10.203Z,88.70
2023-04-22T16:34:38.055Z,99.03
2023-04-22T16:37:04.738Z,106.03
2023-04-22T16:39:31.391Z,105.80
2023-04-22T16:41:58.757Z,114.70
2023-04-22T16:44:25.642Z,134.70
2023-04-22T16:46:52.295Z,137.50
2023-04-22T16:49:18.933Z,118.13
2023-04-22T16:51:45.694Z,105.45
2023-04-22T16:54:12.335Z,98.45
2023-04-22T16:56:38.960Z,101.90
2023-04-22T16:59:05.726Z,103.40
2023-04-22T17:01:32.392Z,92.55
2023-04-22T17:03:59.196Z,88.45
2023-04-22T17:06:28.091Z,87.90
2023-04-22T17:08:54.808Z,91.45
2023-04-22T17:11:21.963Z,86.88
2023-04-22T17:13:48.680Z,92.72
2023-04-22T17:16:15.656Z,88.32
2023-04-22T17:18:42.617Z,88.38
2023-04-22T17:21:09.478Z,86.65
2023-04-22T17:23:36.600Z,88.32
2023-04-22T17:26:03.249Z,86.97
2023-04-22T17:28:29.900Z,93.32
2023-04-22T17:30:56.522Z,86.93
2023-04-22T17:33:23.266Z,89.82
2023-04-22T17:35:49.928Z,88.82
2023-04-22T17:38:16.585Z,92.13
2023-04-22T17:40:43.786Z,88.95
2023-04-22T17:43:10.682Z,88.50
2023-04-22T17:45:37.307Z,88.10
2023-04-22T17:48:04.094Z,87.63
2023-04-22T17:50:30.968Z,90.97
2023-04-22T17:52:57.997Z,90.88
2023-04-22T17:55:24.824Z,89.57
2023-04-22T17:57:51.429Z,90.72
2023-04-22T18:00:18.836Z,92.95
2023-04-22T18:02:45.683Z,89.38
2023-04-22T18:05:12.560Z,89.88
2023-04-22T18:07:39.477Z,92.30
2023-04-22T18:10:08.196Z,92.82
2023-04-22T18:12:35.432Z,88.43
2023-04-22T18:15:02.177Z,93.15
2023-04-22T18:17:28.823Z,88.88
2023-04-22T18:20:09.800Z,88.93
2023-04-22T18:22:41.722Z,88.93
2023-04-22T18:25:08.516Z,90.57
2023-04-22T18:27:35.278Z,91.10
2023-04-22T18:30:01.999Z,93.45
2023-04-22T18:32:28.818Z,91.82
2023-04-22T18:34:55.494Z,88.78
2023-04-22T18:37:22.218Z,90.90
2023-04-22T18:39:49.048Z,88.88
2023-04-22T18:42:15.705Z,89.00
2023-04-22T18:44:42.691Z,87.70
2023-04-22T18:47:09.661Z,88.03
2023-04-22T18:49:36.416Z,89.40
2023-04-22T18:52:03.167Z,87.88
2023-04-22T18:54:30.752Z,87.72
2023-04-22T18:56:58.198Z,88.03
2023-04-22T18:59:24.890Z,88.35
2023-04-22T19:01:51.680Z,90.10
2023-04-22T19:04:18.510Z,89.53
2023-04-22T19:06:45.293Z,87.82
2023-04-22T19:09:11.897Z,89.18
2023-04-22T19:11:38.933Z,90.95
2023-04-22T19:14:05.855Z,89.70
2023-04-22T19:16:32.666Z,90.65
2023-04-22T19:18:59.261Z,87.93
2023-04-22T19:21:27.016Z,89.53
2023-04-22T19:23:53.792Z,88.88
2023-04-22T19:26:21.941Z,89.93
2023-04-22T19:28:49.012Z,89.10
2023-04-22T19:31:17.215Z,89.90
2023-04-22T19:33:44.427Z,91.05
2023-04-22T19:36:11.066Z,89.78
2023-04-22T19:38:37.682Z,90.10
2023-04-22T19:41:04.331Z,88.45
2023-04-22T19:43:31.104Z,88.38
2023-04-22T19:45:58.314Z,89.28
2023-04-22T19:48:25.354Z,91.05
2023-04-22T19:50:52.170Z,89.55
2023-04-22T19:53:19.665Z,90.05
2023-04-22T19:55:46.852Z,88.68
2023-04-22T19:58:14.332Z,92.03
2023-04-22T20:00:42.584Z,90.65
2023-04-22T20:03:10.114Z,88.20
2023-04-22T20:05:37.443Z,94.72
2023-04-22T20:08:06.960Z,92.05
2023-04-22T20:10:33.875Z,91.10
2023-04-22T20:13:00.831Z,90.55
2023-04-22T20:15:27.681Z,89.03
2023-04-22T20:17:55.110Z,90.65
2023-04-22T20:20:21.953Z,90.45
2023-04-22T20:22:51.488Z,89.13
2023-04-22T20:25:18.845Z,93.10
2023-04-22T20:27:45.743Z,94.53
2023-04-22T20:30:15.865Z,91.55
2023-04-22T20:32:42.730Z,89.72
2023-04-22T20:35:14.792Z,90.97
2023-04-22T20:37:41.712Z,89.80
2023-04-22T20:40:08.808Z,91.60
2023-04-22T20:42:36.899Z,89.60
2023-04-22T20:45:07.233Z,90.22
2023-04-22T20:47:33.940Z,89.22
2023-04-22T20:50:00.978Z,92.63
2023-04-22T20:52:27.850Z,93.90
2023-04-22T20:54:58.448Z,90.65
2023-04-22T20:57:25.133Z,98.93
2023-04-22T20:59:51.823Z,92.35
2023-04-22T21:02:20.971Z,94.75
2023-04-22T21:04:47.881Z,90.90
2023-04-22T21:07:16.105Z,92.65
2023-04-22T21:09:43.548Z,89.63
2023-04-22T21:12:10.775Z,93.80
2023-04-22T21:14:43.260Z,92.55
2023-04-22T21:17:19.548Z,90.78
2023-04-22T21:19:48.509Z,92.40
2023-04-22T21:22:18.604Z,89.57
2023-04-22T21:24:50.938Z,90.18
2023-04-22T21:27:18.960Z,92.25
2023-04-22T21:29:46.671Z,91.75
2023-04-22T21:32:14.203Z,91.68
2023-04-22T21:34:41.234Z,95.35
2023-04-22T21:37:08.505Z,90.60
2023-04-22T21:39:35.282Z,91.93
2023-04-22T21:42:08.073Z,89.07
2023-04-22T21:44:36.389Z,91.43
2023-04-22T21:47:03.447Z,90.43
2023-04-22T21:49:30.057Z,90.88
2023-04-22T21:51:57.052Z,91.00
2023-04-22T21:54:23.804Z,94.15
2023-04-22T21:56:50.837Z,91.38
2023-04-22T21:59:17.725Z,94.20
2023-04-22T22:01:44.475Z,93.07
2023-04-22T22:04:13.908Z,94.50
2023-04-22T22:06:42.361Z,92.72
2023-04-22T22:09:09.181Z,91.45
2023-04-22T22:11:36.008Z,91.43
2023-04-22T22:14:02.751Z,93.43
2023-04-22T22:16:29.596Z,91.78
2023-04-22T22:18:57.789Z,91.47
2023-04-22T22:21:24.737Z,93.55
2023-04-22T22:23:51.770Z,91.28
2023-04-22T22:26:18.737Z,92.03
2023-04-22T22:28:45.366Z,92.43
2023-04-22T22:31:12.096Z,95.45
2023-04-22T22:33:38.695Z,91.57
2023-04-22T22:36:05.493Z,91.97
2023-04-22T22:38:32.279Z,92.53
2023-04-22T22:40:58.904Z,94.68
2023-04-22T22:43:25.615Z,93.25
2023-04-22T22:45:52.672Z,92.95
2023-04-22T22:48:19.533Z,92.50
2023-04-22T22:50:46.529Z,92.75
2023-04-22T22:53:13.332Z,91.40
2023-04-22T22:55:39.964Z,93.88
2023-04-22T22:58:06.593Z,92.55
2023-04-22T23:00:33.241Z,93.97
2023-04-22T23:03:00.458Z,93.38
2023-04-22T23:05:27.731Z,96.75
2023-04-22T23:07:54.354Z,92.53
2023-04-22T23:10:21.109Z,95.75
2023-04-22T23:12:47.745Z,99.90
2023-04-22T23:15:14.401Z,96.43
2023-04-22T23:17:41.148Z,94.07
2023-04-22T23:20:10.621Z,92.55
2023-04-22T23:22:40.593Z,96.10
2023-04-22T23:25:08.636Z,93.03
2023-04-22T23:27:35.952Z,95.93
2023-04-22T23:30:04.594Z,96.38
2023-04-22T23:32:33.044Z,101.05
2023-04-22T23:35:01.661Z,105.15
2023-04-22T23:37:29.426Z,93.32
2023-04-22T23:39:56.287Z,92.32
2023-04-22T23:42:22.964Z,95.25
2023-04-22T23:44:49.778Z,95.13
2023-04-22T23:47:16.933Z,95.28
2023-04-22T23:49:43.798Z,95.95
2023-04-22T23:52:12.721Z,95.63
2023-04-22T23:54:40.468Z,101.13
2023-04-22T23:57:07.711Z,94.43
2023-04-22T23:59:34.607Z,98.22
